sensor_id;sensor_type;location;lat;lon;timestamp;P1;durP1;ratioP1;P2;durP2;ratioP2
21727;SDS011;11026;50.560;17.852;2022-07-29T00:01:40;5.55;;;3.75;;
21727;SDS011;11026;50.560;17.852;2022-07-29T00:04:08;6.45;;;4.60;;
21727;SDS011;11026;50.560;17.852;2022-07-29T00:06:35;11.90;;;4.53;;
21727;SDS011;11026;50.560;17.852;2022-07-29T00:09:02;5.50;;;3.92;;
21727;SDS011;11026;50.560;17.852;2022-07-29T00:11:31;6.05;;;4.72;;
21727;SDS011;11026;50.560;17.852;2022-07-29T00:14:04;8.52;;;4.40;;
21727;SDS011;11026;50.560;17.852;2022-07-29T00:16:32;6.93;;;4.57;;
21727;SDS011;11026;50.560;17.852;2022-07-29T00:18:59;8.45;;;4.70;;
21727;SDS011;11026;50.560;17.852;2022-07-29T00:21:37;11.65;;;4.40;;
21727;SDS011;11026;50.560;17.852;2022-07-29T00:24:05;6.47;;;3.97;;
21727;SDS011;11026;50.560;17.852;2022-07-29T00:26:32;6.57;;;4.60;;
21727;SDS011;11026;50.560;17.852;2022-07-29T00:29:02;6.97;;;4.20;;
21727;SDS011;11026;50.560;17.852;2022-07-29T00:31:50;7.30;;;4.60;;
21727;SDS011;11026;50.560;17.852;2022-07-29T00:34:20;6.57;;;4.43;;
21727;SDS011;11026;50.560;17.852;2022-07-29T00:37:05;8.85;;;4.35;;
21727;SDS011;11026;50.560;17.852;2022-07-29T00:39:33;7.32;;;4.32;;
21727;SDS011;11026;50.560;17.852;2022-07-29T00:42:02;6.22;;;4.32;;
21727;SDS011;11026;50.560;17.852;2022-07-29T00:47:21;7.55;;;4.03;;
21727;SDS011;11026;50.560;17.852;2022-07-29T00:49:51;5.80;;;4.47;;
21727;SDS011;11026;50.560;17.852;2022-07-29T00:52:21;6.70;;;5.00;;
21727;SDS011;11026;50.560;17.852;2022-07-29T00:54:48;7.05;;;5.25;;
21727;SDS011;11026;50.560;17.852;2022-07-29T00:57:16;8.15;;;4.57;;
21727;SDS011;11026;50.560;17.852;2022-07-29T00:59:44;6.38;;;4.93;;
21727;SDS011;11026;50.560;17.852;2022-07-29T01:02:12;8.40;;;4.90;;
21727;SDS011;11026;50.560;17.852;2022-07-29T01:04:41;8.65;;;4.95;;
21727;SDS011;11026;50.560;17.852;2022-07-29T01:07:08;9.65;;;5.03;;
21727;SDS011;11026;50.560;17.852;2022-07-29T01:09:38;9.20;;;4.60;;
21727;SDS011;11026;50.560;17.852;2022-07-29T01:12:15;9.82;;;4.57;;
21727;SDS011;11026;50.560;17.852;2022-07-29T01:14:45;6.45;;;4.18;;
21727;SDS011;11026;50.560;17.852;2022-07-29T01:17:26;6.82;;;4.38;;
21727;SDS011;11026;50.560;17.852;2022-07-29T01:25:48;9.18;;;4.95;;
21727;SDS011;11026;50.560;17.852;2022-07-29T01:32:50;10.52;;;4.47;;
21727;SDS011;11026;50.560;17.852;2022-07-29T01:35:08;8.32;;;4.63;;
21727;SDS011;11026;50.560;17.852;2022-07-29T01:37:45;7.30;;;4.72;;
21727;SDS011;11026;50.560;17.852;2022-07-29T01:40:27;8.75;;;4.88;;
21727;SDS011;11026;50.560;17.852;2022-07-29T01:43:16;9.02;;;5.40;;
21727;SDS011;11026;50.560;17.852;2022-07-29T01:45:55;7.10;;;5.07;;
21727;SDS011;11026;50.560;17.852;2022-07-29T01:51:20;11.00;;;4.70;;
21727;SDS011;11026;50.560;17.852;2022-07-29T01:53:55;9.73;;;5.43;;
21727;SDS011;11026;50.560;17.852;2022-07-29T01:56:33;10.18;;;5.15;;
21727;SDS011;11026;50.560;17.852;2022-07-29T01:59:03;10.45;;;5.35;;
21727;SDS011;11026;50.560;17.852;2022-07-29T02:01:35;10.93;;;5.80;;
21727;SDS011;11026;50.560;17.852;2022-07-29T02:04:06;8.30;;;5.47;;
21727;SDS011;11026;50.560;17.852;2022-07-29T02:06:52;10.07;;;5.63;;
21727;SDS011;11026;50.560;17.852;2022-07-29T02:09:22;10.25;;;5.68;;
21727;SDS011;11026;50.560;17.852;2022-07-29T02:11:53;10.15;;;5.65;;
21727;SDS011;11026;50.560;17.852;2022-07-29T02:14:23;11.27;;;5.60;;
21727;SDS011;11026;50.560;17.852;2022-07-29T02:19:47;7.18;;;5.65;;
21727;SDS011;11026;50.560;17.852;2022-07-29T02:22:18;7.40;;;5.88;;
21727;SDS011;11026;50.560;17.852;2022-07-29T02:24:48;10.77;;;5.53;;
21727;SDS011;11026;50.560;17.852;2022-07-29T02:27:18;10.52;;;5.85;;
21727;SDS011;11026;50.560;17.852;2022-07-29T02:29:49;10.98;;;6.38;;
21727;SDS011;11026;50.560;17.852;2022-07-29T02:32:24;7.50;;;5.90;;
21727;SDS011;11026;50.560;17.852;2022-07-29T02:34:55;10.52;;;5.90;;
21727;SDS011;11026;50.560;17.852;2022-07-29T02:37:24;7.25;;;5.45;;
21727;SDS011;11026;50.560;17.852;2022-07-29T02:39:53;7.07;;;5.25;;
21727;SDS011;11026;50.560;17.852;2022-07-29T02:42:22;9.50;;;5.97;;
21727;SDS011;11026;50.560;17.852;2022-07-29T02:44:53;8.18;;;5.53;;
21727;SDS011;11026;50.560;17.852;2022-07-29T02:50:19;11.95;;;5.60;;
21727;SDS011;11026;50.560;17.852;2022-07-29T02:52:55;7.18;;;5.30;;
21727;SDS011;11026;50.560;17.852;2022-07-29T02:58:45;6.93;;;5.18;;
21727;SDS011;11026;50.560;17.852;2022-07-29T03:01:20;6.25;;;5.38;;
21727;SDS011;11026;50.560;17.852;2022-07-29T03:09:11;8.65;;;5.85;;
21727;SDS011;11026;50.560;17.852;2022-07-29T03:11:49;10.27;;;5.97;;
21727;SDS011;11026;50.560;17.852;2022-07-29T03:16:54;9.88;;;5.20;;
21727;SDS011;11026;50.560;17.852;2022-07-29T03:21:58;9.07;;;5.80;;
21727;SDS011;11026;50.560;17.852;2022-07-29T03:24:27;7.35;;;5.72;;
21727;SDS011;11026;50.560;17.852;2022-07-29T03:27:00;10.18;;;5.80;;
21727;SDS011;11026;50.560;17.852;2022-07-29T03:37:36;9.15;;;6.05;;
21727;SDS011;11026;50.560;17.852;2022-07-29T03:43:03;9.98;;;6.25;;
21727;SDS011;11026;50.560;17.852;2022-07-29T03:45:34;12.82;;;7.13;;
21727;SDS011;11026;50.560;17.852;2022-07-29T03:48:09;10.80;;;5.65;;
21727;SDS011;11026;50.560;17.852;2022-07-29T03:50:40;19.40;;;8.40;;
21727;SDS011;11026;50.560;17.852;2022-07-29T03:53:08;17.23;;;10.65;;
21727;SDS011;11026;50.560;17.852;2022-07-29T03:55:50;31.83;;;20.88;;
21727;SDS011;11026;50.560;17.852;2022-07-29T03:58:21;30.60;;;20.00;;
21727;SDS011;11026;50.560;17.852;2022-07-29T04:00:52;24.27;;;15.85;;
21727;SDS011;11026;50.560;17.852;2022-07-29T04:03:22;17.83;;;12.35;;
21727;SDS011;11026;50.560;17.852;2022-07-29T04:06:07;19.13;;;11.63;;
21727;SDS011;11026;50.560;17.852;2022-07-29T04:08:34;14.85;;;9.23;;
21727;SDS011;11026;50.560;17.852;2022-07-29T04:11:13;11.40;;;7.32;;
21727;SDS011;11026;50.560;17.852;2022-07-29T04:13:47;13.20;;;7.95;;
21727;SDS011;11026;50.560;17.852;2022-07-29T04:18:59;10.82;;;6.72;;
21727;SDS011;11026;50.560;17.852;2022-07-29T04:21:27;10.50;;;6.15;;
21727;SDS011;11026;50.560;17.852;2022-07-29T04:23:56;11.93;;;6.00;;
21727;SDS011;11026;50.560;17.852;2022-07-29T04:26:30;13.38;;;5.97;;
21727;SDS011;11026;50.560;17.852;2022-07-29T04:32:22;8.85;;;4.90;;
21727;SDS011;11026;50.560;17.852;2022-07-29T04:37:33;9.85;;;4.20;;
21727;SDS011;11026;50.560;17.852;2022-07-29T04:40:00;7.85;;;4.30;;
21727;SDS011;11026;50.560;17.852;2022-07-29T04:42:38;10.05;;;4.30;;
21727;SDS011;11026;50.560;17.852;2022-07-29T04:47:49;7.80;;;3.90;;
21727;SDS011;11026;50.560;17.852;2022-07-29T04:50:18;7.22;;;3.80;;
21727;SDS011;11026;50.560;17.852;2022-07-29T04:52:45;6.95;;;4.10;;
21727;SDS011;11026;50.560;17.852;2022-07-29T04:55:12;7.32;;;4.05;;
21727;SDS011;11026;50.560;17.852;2022-07-29T04:57:39;7.22;;;3.72;;
21727;SDS011;11026;50.560;17.852;2022-07-29T05:00:08;5.20;;;3.72;;
21727;SDS011;11026;50.560;17.852;2022-07-29T05:02:36;6.15;;;3.60;;
21727;SDS011;11026;50.560;17.852;2022-07-29T05:05:04;5.40;;;3.80;;
21727;SDS011;11026;50.560;17.852;2022-07-29T05:07:31;6.32;;;3.25;;
21727;SDS011;11026;50.560;17.852;2022-07-29T05:09:58;5.22;;;3.30;;
21727;SDS011;11026;50.560;17.852;2022-07-29T05:12:32;7.03;;;3.50;;
21727;SDS011;11026;50.560;17.852;2022-07-29T05:15:00;5.00;;;3.35;;
21727;SDS011;11026;50.560;17.852;2022-07-29T05:17:33;6.05;;;3.60;;
21727;SDS011;11026;50.560;17.852;2022-07-29T05:20:01;4.95;;;3.58;;
21727;SDS011;11026;50.560;17.852;2022-07-29T05:25:05;9.60;;;3.35;;
21727;SDS011;11026;50.560;17.852;2022-07-29T05:27:36;9.45;;;3.72;;
21727;SDS011;11026;50.560;17.852;2022-07-29T05:30:06;7.47;;;3.40;;
21727;SDS011;11026;50.560;17.852;2022-07-29T05:32:34;7.18;;;3.13;;
21727;SDS011;11026;50.560;17.852;2022-07-29T05:35:01;5.32;;;2.90;;
21727;SDS011;11026;50.560;17.852;2022-07-29T05:37:28;5.03;;;3.00;;
21727;SDS011;11026;50.560;17.852;2022-07-29T05:39:57;6.65;;;3.22;;
21727;SDS011;11026;50.560;17.852;2022-07-29T05:42:31;7.25;;;3.28;;
21727;SDS011;11026;50.560;17.852;2022-07-29T05:47:48;5.75;;;3.03;;
21727;SDS011;11026;50.560;17.852;2022-07-29T05:50:16;6.63;;;3.10;;
21727;SDS011;11026;50.560;17.852;2022-07-29T05:52:44;7.65;;;3.15;;
21727;SDS011;11026;50.560;17.852;2022-07-29T05:55:13;4.63;;;2.72;;
21727;SDS011;11026;50.560;17.852;2022-07-29T05:57:40;6.05;;;2.88;;
21727;SDS011;11026;50.560;17.852;2022-07-29T06:00:15;5.63;;;3.10;;
21727;SDS011;11026;50.560;17.852;2022-07-29T06:08:10;4.93;;;2.80;;
21727;SDS011;11026;50.560;17.852;2022-07-29T06:10:37;7.45;;;3.45;;
21727;SDS011;11026;50.560;17.852;2022-07-29T06:13:09;5.13;;;2.63;;
21727;SDS011;11026;50.560;17.852;2022-07-29T06:15:36;4.15;;;2.63;;
21727;SDS011;11026;50.560;17.852;2022-07-29T06:18:05;6.65;;;2.90;;
21727;SDS011;11026;50.560;17.852;2022-07-29T06:20:36;8.70;;;2.60;;
21727;SDS011;11026;50.560;17.852;2022-07-29T06:23:03;5.75;;;3.03;;
21727;SDS011;11026;50.560;17.852;2022-07-29T06:25:33;5.88;;;2.72;;
21727;SDS011;11026;50.560;17.852;2022-07-29T06:28:02;4.10;;;2.55;;
21727;SDS011;11026;50.560;17.852;2022-07-29T06:30:35;6.65;;;2.70;;
21727;SDS011;11026;50.560;17.852;2022-07-29T06:33:08;3.83;;;3.10;;
21727;SDS011;11026;50.560;17.852;2022-07-29T06:35:35;6.25;;;2.55;;
21727;SDS011;11026;50.560;17.852;2022-07-29T06:38:12;6.65;;;2.70;;
21727;SDS011;11026;50.560;17.852;2022-07-29T06:41:11;5.88;;;2.70;;
21727;SDS011;11026;50.560;17.852;2022-07-29T06:43:43;9.18;;;2.60;;
21727;SDS011;11026;50.560;17.852;2022-07-29T06:46:18;6.35;;;2.60;;
21727;SDS011;11026;50.560;17.852;2022-07-29T06:48:47;2.65;;;2.13;;
21727;SDS011;11026;50.560;17.852;2022-07-29T06:51:16;5.07;;;2.80;;
21727;SDS011;11026;50.560;17.852;2022-07-29T06:53:50;4.10;;;3.00;;
21727;SDS011;11026;50.560;17.852;2022-07-29T06:56:30;5.38;;;2.53;;
21727;SDS011;11026;50.560;17.852;2022-07-29T06:59:05;8.07;;;2.50;;
21727;SDS011;11026;50.560;17.852;2022-07-29T07:01:34;4.05;;;2.50;;
21727;SDS011;11026;50.560;17.852;2022-07-29T07:04:04;6.32;;;2.67;;
21727;SDS011;11026;50.560;17.852;2022-07-29T07:06:33;7.18;;;3.08;;
21727;SDS011;11026;50.560;17.852;2022-07-29T07:09:07;9.07;;;3.35;;
21727;SDS011;11026;50.560;17.852;2022-07-29T07:11:34;5.03;;;2.83;;
21727;SDS011;11026;50.560;17.852;2022-07-29T07:14:03;8.80;;;2.60;;
21727;SDS011;11026;50.560;17.852;2022-07-29T07:16:33;5.22;;;2.83;;
21727;SDS011;11026;50.560;17.852;2022-07-29T07:19:01;5.10;;;2.78;;
21727;SDS011;11026;50.560;17.852;2022-07-29T07:21:28;5.07;;;2.72;;
21727;SDS011;11026;50.560;17.852;2022-07-29T07:23:58;7.38;;;3.13;;
21727;SDS011;11026;50.560;17.852;2022-07-29T07:26:27;3.75;;;2.70;;
21727;SDS011;11026;50.560;17.852;2022-07-29T07:29:04;6.72;;;3.03;;
21727;SDS011;11026;50.560;17.852;2022-07-29T07:31:32;5.25;;;2.78;;
21727;SDS011;11026;50.560;17.852;2022-07-29T07:33:59;6.70;;;2.78;;
21727;SDS011;11026;50.560;17.852;2022-07-29T07:39:23;5.25;;;2.63;;
21727;SDS011;11026;50.560;17.852;2022-07-29T07:41:53;6.65;;;2.78;;
21727;SDS011;11026;50.560;17.852;2022-07-29T07:44:20;5.88;;;3.10;;
21727;SDS011;11026;50.560;17.852;2022-07-29T07:46:51;7.28;;;2.80;;
21727;SDS011;11026;50.560;17.852;2022-07-29T07:49:20;5.63;;;2.55;;
21727;SDS011;11026;50.560;17.852;2022-07-29T07:51:53;5.88;;;2.60;;
21727;SDS011;11026;50.560;17.852;2022-07-29T07:54:26;6.38;;;2.80;;
21727;SDS011;11026;50.560;17.852;2022-07-29T07:56:56;3.88;;;2.75;;
21727;SDS011;11026;50.560;17.852;2022-07-29T08:01:55;4.03;;;2.60;;
21727;SDS011;11026;50.560;17.852;2022-07-29T08:04:23;3.67;;;2.78;;
21727;SDS011;11026;50.560;17.852;2022-07-29T08:06:54;7.18;;;2.72;;
21727;SDS011;11026;50.560;17.852;2022-07-29T08:09:24;5.90;;;3.30;;
21727;SDS011;11026;50.560;17.852;2022-07-29T08:12:01;3.80;;;2.65;;
21727;SDS011;11026;50.560;17.852;2022-07-29T08:20:07;4.43;;;3.00;;
21727;SDS011;11026;50.560;17.852;2022-07-29T08:22:35;6.40;;;2.80;;
21727;SDS011;11026;50.560;17.852;2022-07-29T08:25:03;5.75;;;3.20;;
21727;SDS011;11026;50.560;17.852;2022-07-29T08:27:31;6.68;;;3.00;;
21727;SDS011;11026;50.560;17.852;2022-07-29T08:30:09;4.55;;;2.88;;
21727;SDS011;11026;50.560;17.852;2022-07-29T08:32:37;3.65;;;2.78;;
21727;SDS011;11026;50.560;17.852;2022-07-29T08:38:00;6.22;;;2.63;;
21727;SDS011;11026;50.560;17.852;2022-07-29T08:40:28;5.05;;;3.00;;
21727;SDS011;11026;50.560;17.852;2022-07-29T08:43:09;7.05;;;2.80;;
21727;SDS011;11026;50.560;17.852;2022-07-29T08:48:18;6.18;;;2.78;;
21727;SDS011;11026;50.560;17.852;2022-07-29T08:51:01;5.40;;;3.17;;
21727;SDS011;11026;50.560;17.852;2022-07-29T08:53:29;6.25;;;3.10;;
21727;SDS011;11026;50.560;17.852;2022-07-29T08:56:00;4.97;;;2.83;;
21727;SDS011;11026;50.560;17.852;2022-07-29T08:58:31;4.45;;;2.78;;
21727;SDS011;11026;50.560;17.852;2022-07-29T09:01:04;5.15;;;2.95;;
21727;SDS011;11026;50.560;17.852;2022-07-29T09:03:44;5.82;;;2.80;;
21727;SDS011;11026;50.560;17.852;2022-07-29T09:06:20;10.63;;;2.80;;
21727;SDS011;11026;50.560;17.852;2022-07-29T09:08:49;5.57;;;3.17;;
21727;SDS011;11026;50.560;17.852;2022-07-29T09:11:18;5.80;;;2.90;;
21727;SDS011;11026;50.560;17.852;2022-07-29T09:13:47;5.55;;;2.97;;
21727;SDS011;11026;50.560;17.852;2022-07-29T09:16:17;4.90;;;3.10;;
21727;SDS011;11026;50.560;17.852;2022-07-29T09:19:06;6.10;;;3.10;;
21727;SDS011;11026;50.560;17.852;2022-07-29T09:21:48;4.18;;;3.13;;
21727;SDS011;11026;50.560;17.852;2022-07-29T09:27:18;6.93;;;3.15;;
21727;SDS011;11026;50.560;17.852;2022-07-29T09:29:56;7.15;;;3.28;;
21727;SDS011;11026;50.560;17.852;2022-07-29T09:32:29;8.60;;;3.58;;
21727;SDS011;11026;50.560;17.852;2022-07-29T09:37:53;11.63;;;4.00;;
21727;SDS011;11026;50.560;17.852;2022-07-29T09:40:25;6.57;;;3.90;;
21727;SDS011;11026;50.560;17.852;2022-07-29T09:42:55;5.10;;;3.77;;
21727;SDS011;11026;50.560;17.852;2022-07-29T09:45:30;7.05;;;4.75;;
21727;SDS011;11026;50.560;17.852;2022-07-29T09:47:59;8.23;;;4.25;;
21727;SDS011;11026;50.560;17.852;2022-07-29T09:50:55;6.05;;;4.05;;
21727;SDS011;11026;50.560;17.852;2022-07-29T09:53:31;5.25;;;3.78;;
21727;SDS011;11026;50.560;17.852;2022-07-29T09:56:04;6.55;;;4.53;;
21727;SDS011;11026;50.560;17.852;2022-07-29T09:58:34;6.25;;;4.70;;
21727;SDS011;11026;50.560;17.852;2022-07-29T10:06:30;9.98;;;5.68;;
21727;SDS011;11026;50.560;17.852;2022-07-29T10:09:07;9.63;;;4.57;;
21727;SDS011;11026;50.560;17.852;2022-07-29T10:11:35;8.40;;;5.28;;
21727;SDS011;11026;50.560;17.852;2022-07-29T10:14:15;8.95;;;5.10;;
21727;SDS011;11026;50.560;17.852;2022-07-29T10:19:14;9.15;;;5.07;;
21727;SDS011;11026;50.560;17.852;2022-07-29T10:21:42;6.57;;;5.30;;
21727;SDS011;11026;50.560;17.852;2022-07-29T10:24:13;8.18;;;5.72;;
21727;SDS011;11026;50.560;17.852;2022-07-29T10:26:50;8.95;;;5.68;;
21727;SDS011;11026;50.560;17.852;2022-07-29T10:40:42;8.65;;;5.10;;
21727;SDS011;11026;50.560;17.852;2022-07-29T10:43:48;8.25;;;5.35;;
21727;SDS011;11026;50.560;17.852;2022-07-29T10:46:19;7.88;;;4.75;;
21727;SDS011;11026;50.560;17.852;2022-07-29T10:51:51;6.35;;;4.25;;
21727;SDS011;11026;50.560;17.852;2022-07-29T10:57:33;6.00;;;4.60;;
21727;SDS011;11026;50.560;17.852;2022-07-29T11:00:26;9.02;;;4.80;;
21727;SDS011;11026;50.560;17.852;2022-07-29T11:05:30;9.43;;;4.22;;
21727;SDS011;11026;50.560;17.852;2022-07-29T11:08:28;5.95;;;4.82;;
21727;SDS011;11026;50.560;17.852;2022-07-29T11:13:52;4.05;;;3.67;;
21727;SDS011;11026;50.560;17.852;2022-07-29T11:16:57;5.45;;;4.32;;
21727;SDS011;11026;50.560;17.852;2022-07-29T11:19:39;6.45;;;4.13;;
21727;SDS011;11026;50.560;17.852;2022-07-29T11:22:35;6.22;;;4.40;;
21727;SDS011;11026;50.560;17.852;2022-07-29T11:25:17;7.43;;;4.18;;
21727;SDS011;11026;50.560;17.852;2022-07-29T11:33:29;8.07;;;4.13;;
21727;SDS011;11026;50.560;17.852;2022-07-29T11:36:18;8.27;;;4.00;;
21727;SDS011;11026;50.560;17.852;2022-07-29T11:44:59;4.35;;;3.92;;
21727;SDS011;11026;50.560;17.852;2022-07-29T11:47:53;7.90;;;3.80;;
21727;SDS011;11026;50.560;17.852;2022-07-29T11:50:35;9.02;;;3.83;;
21727;SDS011;11026;50.560;17.852;2022-07-29T11:55:48;16.33;;;7.28;;
21727;SDS011;11026;50.560;17.852;2022-07-29T11:58:24;12.13;;;6.57;;
21727;SDS011;11026;50.560;17.852;2022-07-29T12:00:54;13.68;;;5.88;;
21727;SDS011;11026;50.560;17.852;2022-07-29T12:03:25;14.25;;;6.07;;
21727;SDS011;11026;50.560;17.852;2022-07-29T12:06:11;14.07;;;5.80;;
21727;SDS011;11026;50.560;17.852;2022-07-29T12:08:45;7.18;;;4.90;;
21727;SDS011;11026;50.560;17.852;2022-07-29T12:11:21;8.18;;;5.82;;
21727;SDS011;11026;50.560;17.852;2022-07-29T12:17:04;7.90;;;5.47;;
21727;SDS011;11026;50.560;17.852;2022-07-29T12:19:43;6.78;;;5.47;;
21727;SDS011;11026;50.560;17.852;2022-07-29T12:22:27;8.68;;;5.82;;
21727;SDS011;11026;50.560;17.852;2022-07-29T12:25:13;10.50;;;5.63;;
21727;SDS011;11026;50.560;17.852;2022-07-29T12:28:11;9.18;;;5.28;;
21727;SDS011;11026;50.560;17.852;2022-07-29T12:34:01;9.50;;;5.78;;
21727;SDS011;11026;50.560;17.852;2022-07-29T12:36:34;8.43;;;5.63;;
21727;SDS011;11026;50.560;17.852;2022-07-29T12:39:02;6.75;;;5.45;;
21727;SDS011;11026;50.560;17.852;2022-07-29T12:41:29;11.85;;;5.50;;
21727;SDS011;11026;50.560;17.852;2022-07-29T12:43:59;5.30;;;4.47;;
21727;SDS011;11026;50.560;17.852;2022-07-29T12:46:26;10.68;;;5.45;;
21727;SDS011;11026;50.560;17.852;2022-07-29T12:48:54;8.35;;;5.13;;
21727;SDS011;11026;50.560;17.852;2022-07-29T12:51:33;7.57;;;5.40;;
21727;SDS011;11026;50.560;17.852;2022-07-29T12:54:13;8.30;;;5.30;;
21727;SDS011;11026;50.560;17.852;2022-07-29T12:56:44;10.40;;;5.25;;
21727;SDS011;11026;50.560;17.852;2022-07-29T12:59:19;8.50;;;5.30;;
21727;SDS011;11026;50.560;17.852;2022-07-29T13:01:49;7.88;;;4.80;;
21727;SDS011;11026;50.560;17.852;2022-07-29T13:04:28;7.70;;;4.70;;
21727;SDS011;11026;50.560;17.852;2022-07-29T13:07:00;8.65;;;4.82;;
21727;SDS011;11026;50.560;17.852;2022-07-29T13:12:16;8.90;;;4.72;;
21727;SDS011;11026;50.560;17.852;2022-07-29T13:14:44;9.15;;;5.20;;
21727;SDS011;11026;50.560;17.852;2022-07-29T13:17:20;9.88;;;4.95;;
21727;SDS011;11026;50.560;17.852;2022-07-29T13:20:08;6.32;;;5.03;;
21727;SDS011;11026;50.560;17.852;2022-07-29T13:22:39;6.45;;;4.35;;
21727;SDS011;11026;50.560;17.852;2022-07-29T13:25:09;7.30;;;4.95;;
21727;SDS011;11026;50.560;17.852;2022-07-29T13:27:38;8.07;;;4.78;;
21727;SDS011;11026;50.560;17.852;2022-07-29T13:30:08;6.90;;;4.97;;
21727;SDS011;11026;50.560;17.852;2022-07-29T13:32:37;7.25;;;5.03;;
21727;SDS011;11026;50.560;17.852;2022-07-29T13:35:05;5.88;;;4.35;;
21727;SDS011;11026;50.560;17.852;2022-07-29T13:37:34;7.63;;;4.88;;
21727;SDS011;11026;50.560;17.852;2022-07-29T13:40:06;4.82;;;4.30;;
21727;SDS011;11026;50.560;17.852;2022-07-29T13:42:36;7.63;;;4.57;;
21727;SDS011;11026;50.560;17.852;2022-07-29T13:45:03;9.43;;;5.25;;
21727;SDS011;11026;50.560;17.852;2022-07-29T13:47:31;8.80;;;6.80;;
21727;SDS011;11026;50.560;17.852;2022-07-29T13:50:01;9.35;;;5.80;;
21727;SDS011;11026;50.560;17.852;2022-07-29T13:52:35;7.28;;;5.38;;
21727;SDS011;11026;50.560;17.852;2022-07-29T13:55:06;6.13;;;5.10;;
21727;SDS011;11026;50.560;17.852;2022-07-29T13:57:33;7.50;;;5.32;;
21727;SDS011;11026;50.560;17.852;2022-07-29T14:00:01;12.23;;;5.47;;
21727;SDS011;11026;50.560;17.852;2022-07-29T14:02:30;5.63;;;5.13;;
21727;SDS011;11026;50.560;17.852;2022-07-29T14:04:58;8.43;;;5.63;;
21727;SDS011;11026;50.560;17.852;2022-07-29T14:07:28;11.63;;;4.63;;
21727;SDS011;11026;50.560;17.852;2022-07-29T14:09:55;14.30;;;5.25;;
21727;SDS011;11026;50.560;17.852;2022-07-29T14:12:22;7.72;;;4.40;;
21727;SDS011;11026;50.560;17.852;2022-07-29T14:14:50;11.32;;;4.70;;
21727;SDS011;11026;50.560;17.852;2022-07-29T14:17:19;5.75;;;4.80;;
21727;SDS011;11026;50.560;17.852;2022-07-29T14:19:46;5.72;;;4.75;;
21727;SDS011;11026;50.560;17.852;2022-07-29T14:22:15;11.50;;;5.63;;
21727;SDS011;11026;50.560;17.852;2022-07-29T14:24:43;6.47;;;4.68;;
21727;SDS011;11026;50.560;17.852;2022-07-29T14:27:11;7.53;;;5.20;;
21727;SDS011;11026;50.560;17.852;2022-07-29T14:29:38;7.60;;;4.50;;
21727;SDS011;11026;50.560;17.852;2022-07-29T14:32:06;8.05;;;4.82;;
21727;SDS011;11026;50.560;17.852;2022-07-29T14:34:37;11.10;;;5.07;;
21727;SDS011;11026;50.560;17.852;2022-07-29T14:37:06;7.80;;;4.93;;
21727;SDS011;11026;50.560;17.852;2022-07-29T14:39:39;5.43;;;4.57;;
21727;SDS011;11026;50.560;17.852;2022-07-29T14:42:10;8.05;;;4.70;;
21727;SDS011;11026;50.560;17.852;2022-07-29T14:44:39;9.07;;;4.97;;
21727;SDS011;11026;50.560;17.852;2022-07-29T14:47:10;6.93;;;4.53;;
21727;SDS011;11026;50.560;17.852;2022-07-29T14:49:37;6.25;;;4.85;;
21727;SDS011;11026;50.560;17.852;2022-07-29T14:52:06;6.68;;;5.85;;
21727;SDS011;11026;50.560;17.852;2022-07-29T14:54:35;5.68;;;4.65;;
21727;SDS011;11026;50.560;17.852;2022-07-29T14:57:02;6.60;;;4.60;;
21727;SDS011;11026;50.560;17.852;2022-07-29T14:59:31;5.38;;;4.88;;
21727;SDS011;11026;50.560;17.852;2022-07-29T15:07:05;7.50;;;5.05;;
21727;SDS011;11026;50.560;17.852;2022-07-29T15:09:33;9.45;;;4.90;;
21727;SDS011;11026;50.560;17.852;2022-07-29T15:12:06;9.57;;;5.10;;
21727;SDS011;11026;50.560;17.852;2022-07-29T15:14:35;6.07;;;5.35;;
21727;SDS011;11026;50.560;17.852;2022-07-29T15:17:03;8.93;;;7.18;;
21727;SDS011;11026;50.560;17.852;2022-07-29T15:19:30;8.45;;;6.63;;
21727;SDS011;11026;50.560;17.852;2022-07-29T15:21:57;11.57;;;7.60;;
21727;SDS011;11026;50.560;17.852;2022-07-29T15:24:25;9.45;;;7.88;;
21727;SDS011;11026;50.560;17.852;2022-07-29T15:26:53;9.18;;;7.78;;
21727;SDS011;11026;50.560;17.852;2022-07-29T15:29:24;10.27;;;7.47;;
21727;SDS011;11026;50.560;17.852;2022-07-29T15:31:51;9.75;;;7.82;;
21727;SDS011;11026;50.560;17.852;2022-07-29T15:34:19;9.82;;;7.63;;
21727;SDS011;11026;50.560;17.852;2022-07-29T15:36:50;11.73;;;8.60;;
21727;SDS011;11026;50.560;17.852;2022-07-29T15:39:19;8.35;;;7.47;;
21727;SDS011;11026;50.560;17.852;2022-07-29T15:41:48;9.38;;;7.60;;
21727;SDS011;11026;50.560;17.852;2022-07-29T15:44:16;9.18;;;7.32;;
21727;SDS011;11026;50.560;17.852;2022-07-29T15:46:45;11.98;;;8.38;;
21727;SDS011;11026;50.560;17.852;2022-07-29T15:49:38;10.07;;;7.82;;
21727;SDS011;11026;50.560;17.852;2022-07-29T15:52:15;8.85;;;7.95;;
21727;SDS011;11026;50.560;17.852;2022-07-29T15:54:51;10.23;;;7.93;;
21727;SDS011;11026;50.560;17.852;2022-07-29T15:59:50;10.48;;;7.80;;
21727;SDS011;11026;50.560;17.852;2022-07-29T16:02:17;10.00;;;8.32;;
21727;SDS011;11026;50.560;17.852;2022-07-29T16:04:53;8.55;;;7.75;;
21727;SDS011;11026;50.560;17.852;2022-07-29T16:07:20;8.70;;;7.57;;
21727;SDS011;11026;50.560;17.852;2022-07-29T16:09:52;10.13;;;7.00;;
21727;SDS011;11026;50.560;17.852;2022-07-29T16:12:25;9.55;;;6.60;;
21727;SDS011;11026;50.560;17.852;2022-07-29T16:14:59;7.43;;;6.63;;
21727;SDS011;11026;50.560;17.852;2022-07-29T16:20:07;9.32;;;7.60;;
21727;SDS011;11026;50.560;17.852;2022-07-29T16:22:37;10.65;;;6.95;;
21727;SDS011;11026;50.560;17.852;2022-07-29T16:25:06;7.97;;;7.18;;
21727;SDS011;11026;50.560;17.852;2022-07-29T16:27:34;11.20;;;6.78;;
21727;SDS011;11026;50.560;17.852;2022-07-29T16:32:39;8.30;;;6.18;;
21727;SDS011;11026;50.560;17.852;2022-07-29T16:35:06;6.85;;;6.25;;
21727;SDS011;11026;50.560;17.852;2022-07-29T16:37:33;7.47;;;6.78;;
21727;SDS011;11026;50.560;17.852;2022-07-29T16:40:04;8.13;;;5.95;;
21727;SDS011;11026;50.560;17.852;2022-07-29T16:42:37;7.05;;;6.03;;
21727;SDS011;11026;50.560;17.852;2022-07-29T16:45:13;7.35;;;6.50;;
21727;SDS011;11026;50.560;17.852;2022-07-29T16:47:48;7.00;;;6.30;;
21727;SDS011;11026;50.560;17.852;2022-07-29T16:53:09;8.52;;;7.07;;
21727;SDS011;11026;50.560;17.852;2022-07-29T16:58:09;7.95;;;6.20;;
21727;SDS011;11026;50.560;17.852;2022-07-29T17:00:38;6.07;;;5.40;;
21727;SDS011;11026;50.560;17.852;2022-07-29T17:05:41;7.53;;;6.30;;
21727;SDS011;11026;50.560;17.852;2022-07-29T17:08:19;6.85;;;6.20;;
21727;SDS011;11026;50.560;17.852;2022-07-29T17:10:47;7.65;;;6.30;;
21727;SDS011;11026;50.560;17.852;2022-07-29T17:13:14;8.45;;;7.45;;
21727;SDS011;11026;50.560;17.852;2022-07-29T17:15:41;7.82;;;7.03;;
21727;SDS011;11026;50.560;17.852;2022-07-29T17:18:14;6.75;;;6.10;;
21727;SDS011;11026;50.560;17.852;2022-07-29T17:20:41;7.13;;;6.43;;
21727;SDS011;11026;50.560;17.852;2022-07-29T17:23:10;8.05;;;7.25;;
21727;SDS011;11026;50.560;17.852;2022-07-29T17:25:37;9.45;;;7.88;;
21727;SDS011;11026;50.560;17.852;2022-07-29T17:28:04;7.20;;;6.50;;
21727;SDS011;11026;50.560;17.852;2022-07-29T17:30:31;6.93;;;6.32;;
21727;SDS011;11026;50.560;17.852;2022-07-29T17:32:58;9.93;;;6.68;;
21727;SDS011;11026;50.560;17.852;2022-07-29T17:38:20;9.25;;;6.95;;
21727;SDS011;11026;50.560;17.852;2022-07-29T17:40:47;8.68;;;7.20;;
21727;SDS011;11026;50.560;17.852;2022-07-29T17:43:15;9.75;;;8.15;;
21727;SDS011;11026;50.560;17.852;2022-07-29T17:45:43;7.75;;;7.05;;
21727;SDS011;11026;50.560;17.852;2022-07-29T17:50:58;10.05;;;7.75;;